createdAt,value
2022-08-25T00:00:22.585Z,5.20
2022-08-25T00:02:56.147Z,5.00
2022-08-25T00:05:32.301Z,4.82
2022-08-25T00:08:02.806Z,6.13
2022-08-25T00:10:32.608Z,4.70
2022-08-25T00:13:02.019Z,4.97
2022-08-25T00:15:33.943Z,4.40
2022-08-25T00:18:04.818Z,5.00
2022-08-25T00:20:48.699Z,5.68
2022-08-25T00:23:19.586Z,5.57
2022-08-25T00:25:49.508Z,5.65
2022-08-25T00:28:19.459Z,7.28
2022-08-25T00:30:50.725Z,7.63
2022-08-25T00:33:21.544Z,7.82
2022-08-25T00:35:52.839Z,6.75
2022-08-25T00:38:22.330Z,6.88
2022-08-25T00:41:07.333Z,7.07
2022-08-25T00:43:56.907Z,7.97
2022-08-25T00:46:27.911Z,9.60
2022-08-25T00:49:01.985Z,8.80
2022-08-25T00:51:53.244Z,9.75
2022-08-25T00:54:43.583Z,8.48
2022-08-25T00:57:14.170Z,9.65
2022-08-25T00:59:44.758Z,9.70
2022-08-25T01:02:15.575Z,8.20
2022-08-25T01:04:49.235Z,9.65
2022-08-25T01:07:19.989Z,8.93
2022-08-25T01:09:50.454Z,9.73
2022-08-25T01:12:19.989Z,9.77
2022-08-25T01:14:49.684Z,9.00
2022-08-25T01:17:19.436Z,9.43
2022-08-25T01:19:50.171Z,9.77
2022-08-25T01:22:20.277Z,8.95
2022-08-25T01:24:55.123Z,7.80
2022-08-25T01:27:24.791Z,9.43
2022-08-25T01:29:54.471Z,7.78
2022-08-25T01:32:24.028Z,6.82
2022-08-25T01:34:53.667Z,6.32
2022-08-25T01:37:23.199Z,5.25
2022-08-25T01:39:52.761Z,6.07
2022-08-25T01:42:26.594Z,5.40
2022-08-25T01:44:56.139Z,5.25
2022-08-25T01:47:26.065Z,5.85
2022-08-25T01:49:55.706Z,4.00
2022-08-25T01:52:31.553Z,5.28
2022-08-25T01:55:01.250Z,4.22
2022-08-25T01:57:32.896Z,4.85
2022-08-25T02:00:04.277Z,4.75
2022-08-25T02:02:33.900Z,5.53
2022-08-25T02:05:03.778Z,4.38
2022-08-25T02:07:34.826Z,4.80
2022-08-25T02:10:05.652Z,4.13
2022-08-25T02:12:35.467Z,4.15
2022-08-25T02:15:07.036Z,4.50
2022-08-25T02:17:38.267Z,3.50
2022-08-25T02:20:10.898Z,4.72
2022-08-25T02:22:41.024Z,3.65
2022-08-25T02:25:14.846Z,3.97
2022-08-25T02:27:44.624Z,4.13
2022-08-25T02:30:18.138Z,4.85
2022-08-25T02:32:47.593Z,4.13
2022-08-25T02:35:17.442Z,3.85
2022-08-25T02:37:48.336Z,3.63
2022-08-25T02:40:23.594Z,3.90
2022-08-25T02:42:53.391Z,3.95
2022-08-25T02:45:23.097Z,9.40
2022-08-25T02:47:52.923Z,4.90
2022-08-25T02:50:22.607Z,5.10
2022-08-25T02:52:53.396Z,4.32
2022-08-25T02:55:23.609Z,4.70
2022-08-25T02:57:53.241Z,4.82
2022-08-25T03:00:23.232Z,4.03
2022-08-25T03:02:53.205Z,3.35
2022-08-25T03:05:22.963Z,3.95
2022-08-25T03:07:52.468Z,3.67
2022-08-25T03:10:23.745Z,3.53
2022-08-25T03:12:53.398Z,3.80
2022-08-25T03:15:23.047Z,3.88
2022-08-25T03:17:52.961Z,3.17
2022-08-25T03:20:22.914Z,3.70
2022-08-25T03:22:53.391Z,3.85
2022-08-25T03:25:42.837Z,4.28
2022-08-25T03:28:13.604Z,3.67
2022-08-25T03:30:43.667Z,3.97
2022-08-25T03:33:13.634Z,2.80
2022-08-25T03:35:43.245Z,3.65
2022-08-25T03:38:13.141Z,3.40
2022-08-25T03:40:42.822Z,3.00
2022-08-25T03:43:12.421Z,3.15
2022-08-25T03:45:45.541Z,3.92
2022-08-25T03:48:15.608Z,3.38
2022-08-25T03:50:50.629Z,2.67
2022-08-25T03:53:21.832Z,3.05
2022-08-25T03:55:53.556Z,3.50
2022-08-25T03:58:24.402Z,13.05
2022-08-25T04:00:54.030Z,3.70
2022-08-25T04:03:23.626Z,3.72
2022-08-25T04:05:53.534Z,3.40
2022-08-25T04:08:23.841Z,3.85
2022-08-25T04:10:53.544Z,4.70
2022-08-25T04:13:24.116Z,6.13
2022-08-25T04:15:53.731Z,6.28
2022-08-25T04:18:23.369Z,5.63
2022-08-25T04:20:53.526Z,6.00
2022-08-25T04:23:23.277Z,5.30
2022-08-25T04:25:53.478Z,5.97
2022-08-25T04:28:23.141Z,5.10
2022-08-25T04:30:52.920Z,5.25
2022-08-25T04:33:22.357Z,5.45
2022-08-25T04:35:52.266Z,5.60
2022-08-25T04:38:21.734Z,6.05
2022-08-25T04:40:59.186Z,6.22
2022-08-25T04:43:28.740Z,5.53
2022-08-25T04:45:58.352Z,6.53
2022-08-25T04:48:30.708Z,5.32
2022-08-25T04:51:00.311Z,5.78
2022-08-25T04:53:29.854Z,6.75
2022-08-25T04:56:03.561Z,7.90
2022-08-25T04:58:33.517Z,7.30
2022-08-25T05:01:08.103Z,9.00
2022-08-25T05:03:37.816Z,4.13
2022-08-25T05:06:10.885Z,2.75
2022-08-25T05:08:42.478Z,3.38
2022-08-25T05:11:16.149Z,3.42
2022-08-25T05:13:46.378Z,3.55
2022-08-25T05:16:21.763Z,4.18
2022-08-25T05:18:54.182Z,4.40
2022-08-25T05:21:25.747Z,5.72
2022-08-25T05:23:59.116Z,5.03
2022-08-25T05:26:29.146Z,6.03
2022-08-25T05:28:58.764Z,4.93
2022-08-25T05:31:28.858Z,5.25
2022-08-25T05:33:58.561Z,4.75
2022-08-25T05:36:28.626Z,6.88
2022-08-25T05:38:59.040Z,5.18
2022-08-25T05:41:31.341Z,5.60
2022-08-25T05:44:01.248Z,5.10
2022-08-25T05:46:31.813Z,5.35
2022-08-25T05:49:01.578Z,6.20
2022-08-25T05:51:31.377Z,4.65
2022-08-25T05:54:01.227Z,5.22
2022-08-25T05:56:31.056Z,5.68
2022-08-25T05:59:00.640Z,4.80
2022-08-25T06:01:48.676Z,6.40
2022-08-25T06:04:19.682Z,5.43
2022-08-25T06:06:50.384Z,5.40
2022-08-25T06:09:21.482Z,5.85
2022-08-25T06:11:54.679Z,4.97
2022-08-25T06:14:24.649Z,5.25
2022-08-25T06:16:54.706Z,5.10
2022-08-25T06:19:24.719Z,5.85
2022-08-25T06:21:58.645Z,5.60
2022-08-25T06:24:29.104Z,6.05
2022-08-25T06:26:58.759Z,5.72
2022-08-25T06:29:28.360Z,6.20
2022-08-25T06:31:57.962Z,7.22
2022-08-25T06:34:28.723Z,5.80
2022-08-25T06:36:58.502Z,5.32
2022-08-25T06:39:28.120Z,5.20
2022-08-25T06:41:57.837Z,4.55
2022-08-25T06:44:29.102Z,7.45
2022-08-25T06:46:58.912Z,5.25
2022-08-25T06:49:34.163Z,5.28
2022-08-25T06:52:05.773Z,6.18
2022-08-25T06:54:35.437Z,4.60
2022-08-25T06:57:04.986Z,5.07
2022-08-25T06:59:34.860Z,5.57
2022-08-25T07:02:04.559Z,5.07
2022-08-25T07:04:34.450Z,4.50
2022-08-25T07:07:04.106Z,5.38
2022-08-25T07:09:38.584Z,4.10
2022-08-25T07:12:09.389Z,4.88
2022-08-25T07:14:39.388Z,4.07
2022-08-25T07:17:12.009Z,4.32
2022-08-25T07:19:43.592Z,4.72
2022-08-25T07:22:14.856Z,4.60
2022-08-25T07:24:45.531Z,4.28
2022-08-25T07:27:15.071Z,4.38
2022-08-25T07:29:44.671Z,4.07
2022-08-25T07:32:14.267Z,4.35
2022-08-25T07:35:02.411Z,5.90
2022-08-25T07:37:47.659Z,5.85
2022-08-25T07:40:23.746Z,5.85
2022-08-25T07:42:54.075Z,6.30
2022-08-25T07:45:30.857Z,7.60
2022-08-25T07:48:02.455Z,7.47
2022-08-25T07:50:32.929Z,6.13
2022-08-25T07:53:02.674Z,5.13
2022-08-25T07:55:32.268Z,6.53
2022-08-25T07:58:03.046Z,6.53
2022-08-25T08:00:35.871Z,4.75
2022-08-25T08:03:10.033Z,5.07
2022-08-25T08:05:43.521Z,4.90
2022-08-25T08:08:13.680Z,5.00
2022-08-25T08:11:03.201Z,5.45
2022-08-25T08:13:34.138Z,4.85
2022-08-25T08:16:08.279Z,5.57
2022-08-25T08:18:37.883Z,10.02
2022-08-25T08:21:08.393Z,17.35
2022-08-25T08:23:39.247Z,8.20
2022-08-25T08:26:08.996Z,6.50
2022-08-25T08:28:39.038Z,6.70
2022-08-25T08:31:10.682Z,6.75
2022-08-25T08:33:41.608Z,5.47
2022-08-25T08:36:13.258Z,3.60
2022-08-25T08:38:43.586Z,4.57
2022-08-25T08:42:09.561Z,3.83
2022-08-25T08:44:41.236Z,5.85
2022-08-25T08:47:20.355Z,4.95
2022-08-25T08:49:52.213Z,4.30
2022-08-25T08:52:22.281Z,5.65
2022-08-25T08:54:53.194Z,5.57
2022-08-25T08:57:23.738Z,5.97
2022-08-25T08:59:58.957Z,5.45
2022-08-25T09:02:39.507Z,5.20
2022-08-25T09:05:21.499Z,6.10
2022-08-25T09:08:12.963Z,5.03
2022-08-25T09:11:03.919Z,5.60
2022-08-25T09:13:46.823Z,4.13
2022-08-25T09:16:41.146Z,4.15
2022-08-25T09:19:27.372Z,3.80
2022-08-25T09:22:00.098Z,3.85
2022-08-25T09:24:48.281Z,3.50
2022-08-25T09:27:18.090Z,4.00
2022-08-25T09:29:53.942Z,4.40
2022-08-25T09:32:24.039Z,4.15
2022-08-25T09:34:56.097Z,4.07
2022-08-25T09:37:27.328Z,4.00
2022-08-25T09:39:58.216Z,10.43
2022-08-25T09:42:49.655Z,4.43
2022-08-25T09:45:19.713Z,5.18
2022-08-25T09:47:52.942Z,4.65
2022-08-25T09:50:24.584Z,5.32
2022-08-25T09:52:55.259Z,5.88
2022-08-25T09:55:33.200Z,5.75
2022-08-25T09:58:02.730Z,7.00
2022-08-25T10:00:39.547Z,6.15
2022-08-25T10:03:29.639Z,6.50
2022-08-25T10:05:59.201Z,8.43
2022-08-25T10:08:34.167Z,8.80
2022-08-25T10:11:04.764Z,8.65
2022-08-25T10:13:43.523Z,8.07
2022-08-25T10:16:30.834Z,7.18
2022-08-25T10:19:06.295Z,7.18
2022-08-25T10:21:36.355Z,6.75
2022-08-25T10:24:08.570Z,7.15
2022-08-25T10:26:54.160Z,7.75
2022-08-25T10:29:42.098Z,8.55
2022-08-25T10:32:14.872Z,9.55
2022-08-25T10:34:51.619Z,9.50
2022-08-25T10:37:32.855Z,10.00
2022-08-25T10:40:06.495Z,10.18
2022-08-25T10:42:36.306Z,11.77
2022-08-25T10:45:28.851Z,12.80
2022-08-25T10:48:16.947Z,13.60
2022-08-25T10:50:50.265Z,15.65
2022-08-25T10:53:30.772Z,16.35
2022-08-25T10:56:07.696Z,13.32
2022-08-25T10:58:55.841Z,16.35
2022-08-25T11:01:44.627Z,15.55
2022-08-25T11:04:18.439Z,14.95
2022-08-25T11:06:54.593Z,13.60
2022-08-25T11:09:26.797Z,13.73
2022-08-25T11:11:58.182Z,11.20
2022-08-25T11:14:35.034Z,11.45
2022-08-25T11:17:10.810Z,12.38
2022-08-25T11:19:41.772Z,13.90
2022-08-25T11:22:23.102Z,14.63
2022-08-25T11:25:19.299Z,16.98
2022-08-25T11:28:17.314Z,15.50
2022-08-25T11:30:47.084Z,16.80
2022-08-25T11:33:17.001Z,16.77
2022-08-25T11:35:49.133Z,17.30
2022-08-25T11:38:19.233Z,15.63
2022-08-25T11:40:53.192Z,14.82
2022-08-25T11:43:35.848Z,15.13
2022-08-25T11:46:09.289Z,14.80
2022-08-25T11:48:45.170Z,16.25
2022-08-25T11:51:30.931Z,18.48
2022-08-25T11:54:29.641Z,19.30
2022-08-25T11:57:08.109Z,15.80
2022-08-25T11:59:53.629Z,15.65
2022-08-25T12:02:42.483Z,16.15
2022-08-25T12:05:34.852Z,13.75
2022-08-25T12:08:26.497Z,15.10
2022-08-25T12:11:10.923Z,16.27
2022-08-25T12:13:44.319Z,18.98
2022-08-25T12:16:36.705Z,17.08
2022-08-25T12:19:25.574Z,16.95
2022-08-25T12:21:56.105Z,16.90
2022-08-25T12:24:29.410Z,15.23
2022-08-25T12:27:01.801Z,15.10
2022-08-25T12:29:41.441Z,14.55
2022-08-25T12:32:14.556Z,13.68
2022-08-25T12:34:50.562Z,12.13
2022-08-25T12:37:21.171Z,11.10
2022-08-25T12:39:54.037Z,11.50
2022-08-25T12:42:34.249Z,10.70
2022-08-25T12:45:23.281Z,10.10
2022-08-25T12:47:55.249Z,9.75
2022-08-25T12:50:34.156Z,10.30
2022-08-25T12:53:10.175Z,9.32
2022-08-25T12:55:41.073Z,10.05
2022-08-25T12:58:11.894Z,10.52
2022-08-25T13:01:07.037Z,9.43
2022-08-25T13:03:57.406Z,10.52
2022-08-25T13:06:30.578Z,9.75
2022-08-25T13:09:02.677Z,10.85
2022-08-25T13:11:50.682Z,10.65
2022-08-25T13:14:54.085Z,9.52
2022-08-25T13:17:31.302Z,9.98
2022-08-25T13:20:21.459Z,9.45
2022-08-25T13:22:57.443Z,9.82
2022-08-25T13:25:32.122Z,9.50
2022-08-25T13:28:03.734Z,9.38
2022-08-25T13:30:35.395Z,9.32
2022-08-25T13:33:21.991Z,9.55
2022-08-25T13:36:16.517Z,9.85
2022-08-25T13:38:47.338Z,9.07
2022-08-25T13:41:20.920Z,8.57
2022-08-25T13:43:51.444Z,9.77
2022-08-25T13:46:21.919Z,8.32
2022-08-25T13:48:51.811Z,9.32
2022-08-25T13:51:31.202Z,8.10
2022-08-25T13:54:02.563Z,7.90
2022-08-25T13:56:40.537Z,8.27
2022-08-25T13:59:28.795Z,8.50
2022-08-25T14:01:58.557Z,8.95
2022-08-25T14:04:35.554Z,7.60
2022-08-25T14:07:34.395Z,8.85
2022-08-25T14:10:29.147Z,8.03
2022-08-25T14:13:15.791Z,8.77
2022-08-25T14:15:48.573Z,10.15
2022-08-25T14:18:18.145Z,11.95
2022-08-25T14:20:51.979Z,12.05
2022-08-25T14:23:25.501Z,11.10
2022-08-25T14:25:56.788Z,10.73
2022-08-25T14:28:27.526Z,9.82
2022-08-25T14:31:11.071Z,10.15
2022-08-25T14:33:55.570Z,11.63
2022-08-25T14:36:25.149Z,10.52
2022-08-25T14:38:56.839Z,9.80
2022-08-25T14:41:27.942Z,8.50
2022-08-25T14:43:57.615Z,8.18
2022-08-25T14:46:31.912Z,8.25
2022-08-25T14:49:02.253Z,7.95
2022-08-25T14:51:33.864Z,7.53
2022-08-25T14:54:07.457Z,7.65
2022-08-25T14:56:38.804Z,8.88
2022-08-25T14:59:12.818Z,8.02
2022-08-25T15:01:42.580Z,8.65
2022-08-25T15:04:19.974Z,7.45
2022-08-25T15:06:51.035Z,9.27
2022-08-25T15:09:23.266Z,12.50
2022-08-25T15:11:54.976Z,14.20
2022-08-25T15:14:28.828Z,11.27
2022-08-25T15:17:02.579Z,10.15
2022-08-25T15:19:32.979Z,8.07
2022-08-25T15:22:02.830Z,8.02
2022-08-25T15:24:34.987Z,7.78
2022-08-25T15:27:10.322Z,7.38
2022-08-25T15:29:40.177Z,7.68
2022-08-25T15:32:10.697Z,7.25
2022-08-25T15:34:41.350Z,7.50
2022-08-25T15:37:14.919Z,7.03
2022-08-25T15:39:45.089Z,6.60
2022-08-25T15:42:15.498Z,7.85
2022-08-25T15:44:53.288Z,7.32
2022-08-25T15:47:25.401Z,7.33
2022-08-25T15:49:56.181Z,6.65
2022-08-25T15:52:28.353Z,6.95
2022-08-25T15:55:10.016Z,6.70
2022-08-25T15:57:40.266Z,7.13
2022-08-25T16:00:13.540Z,7.40
2022-08-25T16:02:46.569Z,7.38
2022-08-25T16:05:16.763Z,6.70
2022-08-25T16:07:51.684Z,6.53
2022-08-25T16:10:21.965Z,6.60
2022-08-25T16:12:51.612Z,7.30
2022-08-25T16:15:28.607Z,7.10
2022-08-25T16:17:58.826Z,7.03
2022-08-25T16:20:28.911Z,6.00
2022-08-25T16:22:59.491Z,6.63
2022-08-25T16:25:29.830Z,6.40
2022-08-25T16:27:59.478Z,6.03
2022-08-25T16:30:28.930Z,5.75
2022-08-25T16:32:58.470Z,6.47
2022-08-25T16:35:30.753Z,7.57
2022-08-25T16:38:00.287Z,6.57
2022-08-25T16:40:33.916Z,6.32
2022-08-25T16:43:03.942Z,6.85
2022-08-25T16:45:33.545Z,7.38
2022-08-25T16:48:03.657Z,6.78
2022-08-25T16:50:34.605Z,6.45
2022-08-25T16:53:23.864Z,6.72
2022-08-25T16:56:02.979Z,6.35
2022-08-25T16:58:32.567Z,6.88
2022-08-25T17:01:15.347Z,6.43
2022-08-25T17:03:46.167Z,6.32
2022-08-25T17:06:17.009Z,6.75
2022-08-25T17:08:47.084Z,6.78
2022-08-25T17:11:17.927Z,5.57
2022-08-25T17:13:49.717Z,6.22
2022-08-25T17:16:19.819Z,6.15
2022-08-25T17:18:50.183Z,5.57
2022-08-25T17:21:24.331Z,6.38
2022-08-25T17:23:54.813Z,5.65
2022-08-25T17:26:27.916Z,5.72
2022-08-25T17:29:01.550Z,5.78
2022-08-25T17:31:31.590Z,6.88
2022-08-25T17:34:03.870Z,4.88
2022-08-25T17:36:33.462Z,6.47
2022-08-25T17:39:03.662Z,5.72
2022-08-25T17:41:33.337Z,5.10
2022-08-25T17:44:07.520Z,5.15
2022-08-25T17:46:41.798Z,5.82
2022-08-25T17:49:16.836Z,5.43
2022-08-25T17:51:46.590Z,5.40
2022-08-25T17:54:16.502Z,4.68
2022-08-25T17:56:47.264Z,5.63
2022-08-25T17:59:17.976Z,5.60
2022-08-25T18:01:47.813Z,6.47
2022-08-25T18:04:19.562Z,5.72
2022-08-25T18:06:49.758Z,5.00
2022-08-25T18:09:20.580Z,5.85
2022-08-25T18:11:50.915Z,5.35
2022-08-25T18:14:24.811Z,6.07
2022-08-25T18:16:55.413Z,5.75
2022-08-25T18:19:25.271Z,5.57
2022-08-25T18:21:55.457Z,5.75
2022-08-25T18:24:25.007Z,5.40
2022-08-25T18:26:57.107Z,7.15
2022-08-25T18:29:28.983Z,6.10
2022-08-25T18:32:00.367Z,5.90
2022-08-25T18:34:30.548Z,6.03
2022-08-25T18:37:20.871Z,5.78
2022-08-25T18:40:08.818Z,5.85
2022-08-25T18:42:38.386Z,6.32
2022-08-25T18:45:08.887Z,5.90
2022-08-25T18:47:42.860Z,6.20
2022-08-25T18:50:13.663Z,5.53
2022-08-25T18:52:44.294Z,5.63
2022-08-25T18:55:13.991Z,5.45
2022-08-25T18:57:43.589Z,5.75
2022-08-25T19:00:14.225Z,6.03
2022-08-25T19:02:47.072Z,5.82
2022-08-25T19:05:16.991Z,6.35
2022-08-25T19:07:51.678Z,6.68
2022-08-25T19:10:24.094Z,6.50
2022-08-25T19:12:55.534Z,5.45
2022-08-25T19:15:26.936Z,6.15
2022-08-25T19:17:56.739Z,6.70
2022-08-25T19:20:27.415Z,6.13
2022-08-25T19:22:57.011Z,6.20
2022-08-25T19:25:33.138Z,7.18
2022-08-25T19:28:04.394Z,8.15
2022-08-25T19:30:36.839Z,8.43
2022-08-25T19:33:11.670Z,9.02
2022-08-25T19:35:50.705Z,8.13
2022-08-25T19:41:10.398Z,8.35
2022-08-25T19:43:56.504Z,7.78
2022-08-25T19:46:32.858Z,8.02
2022-08-25T19:49:08.179Z,8.43
2022-08-25T19:51:46.333Z,7.70
2022-08-25T19:54:16.820Z,7.35
2022-08-25T19:56:54.885Z,8.05
2022-08-25T19:59:40.608Z,9.05
2022-08-25T20:02:17.266Z,8.07
2022-08-25T20:04:49.872Z,7.95
2022-08-25T20:07:20.660Z,8.25
2022-08-25T20:09:50.276Z,8.75
2022-08-25T20:12:21.540Z,7.70
2022-08-25T20:14:51.283Z,7.60
2022-08-25T20:17:24.514Z,7.53
2022-08-25T20:20:00.711Z,7.55
2022-08-25T20:22:30.981Z,7.68
2022-08-25T20:25:01.111Z,6.75
2022-08-25T20:27:37.901Z,6.00
2022-08-25T20:30:14.568Z,7.70
2022-08-25T20:32:48.124Z,7.53
2022-08-25T20:35:19.044Z,6.15
2022-08-25T20:37:50.183Z,7.22
2022-08-25T20:40:25.673Z,8.10
2022-08-25T20:42:56.348Z,7.05
2022-08-25T20:45:25.971Z,6.82
2022-08-25T20:47:55.535Z,6.30
2022-08-25T20:50:25.554Z,6.32
2022-08-25T20:52:57.919Z,6.88
2022-08-25T20:55:29.107Z,7.55
2022-08-25T20:57:59.786Z,8.23
2022-08-25T21:00:29.271Z,6.00
2022-08-25T21:02:58.839Z,10.35
2022-08-25T21:05:30.221Z,12.40
2022-08-25T21:08:01.233Z,11.90
2022-08-25T21:10:31.326Z,9.27
2022-08-25T21:13:00.832Z,11.77
2022-08-25T21:15:31.231Z,8.85
2022-08-25T21:18:00.733Z,8.23
2022-08-25T21:20:30.675Z,8.10
2022-08-25T21:23:00.455Z,10.05
2022-08-25T21:25:29.982Z,9.65
2022-08-25T21:27:59.654Z,8.98
2022-08-25T21:30:29.962Z,9.70
2022-08-25T21:32:59.511Z,10.68
2022-08-25T21:35:29.294Z,10.05
2022-08-25T21:37:58.947Z,9.98
2022-08-25T21:40:28.522Z,9.55
2022-08-25T21:42:59.190Z,9.93
2022-08-25T21:45:33.295Z,10.55
2022-08-25T21:48:05.809Z,12.18
2022-08-25T21:50:35.418Z,12.32
2022-08-25T21:53:05.214Z,12.75
2022-08-25T21:55:34.914Z,14.73
2022-08-25T21:58:05.921Z,14.68
2022-08-25T22:00:35.592Z,15.02
2022-08-25T22:03:05.198Z,16.75
2022-08-25T22:05:35.754Z,16.13
2022-08-25T22:08:08.545Z,15.30
2022-08-25T22:10:38.185Z,13.80
2022-08-25T22:13:08.952Z,13.77
2022-08-25T22:15:38.571Z,13.50
2022-08-25T22:18:13.498Z,13.57
2022-08-25T22:20:43.645Z,16.00
2022-08-25T22:23:20.276Z,16.52
2022-08-25T22:25:50.109Z,15.32
2022-08-25T22:28:20.866Z,10.45
2022-08-25T22:30:50.972Z,13.43
2022-08-25T22:33:24.998Z,12.68
2022-08-25T22:35:59.861Z,16.13
2022-08-25T22:38:29.601Z,11.40
2022-08-25T22:41:03.847Z,15.63
2022-08-25T22:43:33.387Z,17.45
2022-08-25T22:46:04.310Z,14.88
2022-08-25T22:48:34.993Z,13.30
2022-08-25T22:51:07.024Z,11.68
2022-08-25T22:53:36.893Z,14.75
2022-08-25T22:56:06.838Z,16.60
2022-08-25T22:58:36.806Z,19.02
2022-08-25T23:01:06.375Z,20.27
2022-08-25T23:03:36.055Z,23.65
2022-08-25T23:06:18.652Z,25.75
2022-08-25T23:08:51.600Z,23.60
2022-08-25T23:11:23.566Z,34.50
2022-08-25T23:13:53.435Z,28.60
2022-08-25T23:16:24.940Z,33.72
2022-08-25T23:18:54.514Z,33.20
2022-08-25T23:21:42.701Z,40.10
2022-08-25T23:24:13.756Z,47.10
2022-08-25T23:26:56.565Z,48.03
2022-08-25T23:29:26.132Z,50.10
2022-08-25T23:31:55.902Z,53.50
2022-08-25T23:34:25.498Z,52.13
2022-08-25T23:36:56.164Z,51.53
2022-08-25T23:39:25.726Z,50.67
2022-08-25T23:41:55.330Z,50.85
2022-08-25T23:44:25.708Z,49.58
2022-08-25T23:46:55.265Z,44.72
2022-08-25T23:49:27.717Z,45.88
2022-08-25T23:51:57.909Z,44.13
2022-08-25T23:54:30.956Z,43.45
2022-08-25T23:57:00.773Z,46.67
2022-08-25T23:59:31.132Z,44.40
